createdAt,value
2022-12-23T00:00:00.513Z,0.00
2022-12-23T00:01:00.488Z,0.00
2022-12-23T00:02:00.668Z,0.00
2022-12-23T00:03:00.630Z,0.00
2022-12-23T00:04:00.556Z,0.00
2022-12-23T00:05:00.447Z,0.00
2022-12-23T00:06:00.432Z,0.00
2022-12-23T00:07:00.441Z,0.00
2022-12-23T00:08:00.409Z,0.00
2022-12-23T00:09:00.454Z,0.00
2022-12-23T00:10:00.367Z,0.00
2022-12-23T00:11:00.346Z,0.00
2022-12-23T00:12:00.335Z,0.00
2022-12-23T00:13:00.326Z,0.00
2022-12-23T00:14:00.339Z,0.00
2022-12-23T00:15:00.294Z,0.00
2022-12-23T00:16:00.331Z,0.00
2022-12-23T00:17:00.366Z,0.00
2022-12-23T00:18:00.259Z,0.00
2022-12-23T00:19:00.235Z,0.00
2022-12-23T00:20:00.268Z,0.00
2022-12-23T00:21:04.997Z,0.00
2022-12-23T00:22:01.231Z,0.00
2022-12-23T00:23:00.232Z,0.00
2022-12-23T00:24:00.220Z,0.00
2022-12-23T00:25:00.161Z,0.00
2022-12-23T00:26:00.144Z,0.00
2022-12-23T00:27:00.146Z,0.00
2022-12-23T00:28:00.132Z,0.00
2022-12-23T00:29:00.139Z,0.00
2022-12-23T00:30:00.133Z,0.00
2022-12-23T00:31:00.110Z,0.00
2022-12-23T00:32:00.139Z,0.00
2022-12-23T00:33:00.063Z,0.00
2022-12-23T00:34:00.051Z,0.00
2022-12-23T00:35:00.036Z,0.00
2022-12-23T00:36:00.092Z,0.00
2022-12-23T00:36:59.999Z,0.00
2022-12-23T00:37:59.984Z,0.00
2022-12-23T00:38:59.997Z,0.00
2022-12-23T00:40:06.092Z,0.00
2022-12-23T00:41:00.990Z,0.00
2022-12-23T00:41:59.947Z,0.00
2022-12-23T00:42:59.923Z,0.00
2022-12-23T00:43:59.906Z,0.00
2022-12-23T00:44:59.894Z,0.00
2022-12-23T00:45:59.915Z,0.00
2022-12-23T00:46:59.874Z,0.00
2022-12-23T00:47:59.855Z,0.00
2022-12-23T00:48:59.855Z,0.00
2022-12-23T00:49:59.827Z,0.00
2022-12-23T00:50:59.820Z,0.00
2022-12-23T00:51:59.833Z,0.00
2022-12-23T00:52:59.785Z,0.00
2022-12-23T00:53:59.781Z,0.00
2022-12-23T00:54:59.799Z,0.00
2022-12-23T00:55:59.747Z,0.00
2022-12-23T00:56:59.750Z,0.00
2022-12-23T00:57:59.722Z,0.00
2022-12-23T00:58:59.705Z,0.00
2022-12-23T00:59:59.688Z,0.00
2022-12-23T01:00:59.727Z,0.00
2022-12-23T01:01:59.925Z,0.00
2022-12-23T01:02:59.804Z,0.00
2022-12-23T01:03:59.637Z,0.00
2022-12-23T01:04:59.652Z,0.00
2022-12-23T01:05:59.619Z,0.00
2022-12-23T01:06:59.602Z,0.00
2022-12-23T01:07:59.611Z,0.00
2022-12-23T01:08:59.593Z,0.00
2022-12-23T01:09:59.561Z,0.00
2022-12-23T01:10:59.627Z,0.00
2022-12-23T01:11:59.535Z,0.00
2022-12-23T01:12:59.527Z,0.00
2022-12-23T01:13:59.519Z,0.00
2022-12-23T01:14:59.524Z,0.00
2022-12-23T01:15:59.479Z,0.00
2022-12-23T01:16:59.487Z,0.00
2022-12-23T01:17:59.455Z,0.00
2022-12-23T01:18:59.447Z,0.00
2022-12-23T01:19:59.438Z,0.00
2022-12-23T01:20:59.414Z,0.00
2022-12-23T01:21:59.395Z,0.00
2022-12-23T01:22:59.384Z,0.00
2022-12-23T01:23:59.367Z,0.00
2022-12-23T01:24:59.369Z,0.00
2022-12-23T01:25:59.338Z,0.00
2022-12-23T01:26:59.357Z,0.00
2022-12-23T01:27:59.324Z,0.00
2022-12-23T01:28:59.307Z,0.00
2022-12-23T01:29:59.318Z,0.00
2022-12-23T01:30:59.299Z,0.00
2022-12-23T01:31:59.376Z,0.00
2022-12-23T01:32:59.265Z,0.00
2022-12-23T01:33:59.237Z,0.00
2022-12-23T01:34:59.233Z,0.00
2022-12-23T01:35:59.216Z,0.00
2022-12-23T01:36:59.196Z,0.00
2022-12-23T01:37:59.180Z,0.00
2022-12-23T01:38:59.177Z,0.00
2022-12-23T01:39:59.155Z,0.00
2022-12-23T01:40:59.153Z,0.00
2022-12-23T01:41:59.143Z,0.00
2022-12-23T01:42:59.151Z,0.00
2022-12-23T01:43:59.105Z,0.00
2022-12-23T01:44:59.137Z,0.00
2022-12-23T01:45:59.153Z,0.00
2022-12-23T01:46:59.064Z,0.00
2022-12-23T01:47:59.048Z,0.00
2022-12-23T01:48:59.036Z,0.00
2022-12-23T01:49:59.026Z,0.00
2022-12-23T01:50:59.010Z,0.00
2022-12-23T01:51:58.996Z,0.00
2022-12-23T01:53:04.622Z,0.00
2022-12-23T01:54:00.250Z,0.00
2022-12-23T01:54:58.953Z,0.00
2022-12-23T01:55:58.946Z,0.00
2022-12-23T01:56:58.928Z,0.00
2022-12-23T01:57:58.917Z,0.00
2022-12-23T01:58:58.956Z,0.00
2022-12-23T01:59:58.885Z,0.00
2022-12-23T02:00:58.950Z,0.00
2022-12-23T02:01:59.085Z,0.00
2022-12-23T02:02:58.962Z,0.00
2022-12-23T02:03:58.842Z,0.00
2022-12-23T02:04:58.825Z,0.00
2022-12-23T02:05:58.823Z,0.00
2022-12-23T02:06:58.790Z,0.00
2022-12-23T02:07:58.791Z,0.00
2022-12-23T02:08:58.777Z,0.00
2022-12-23T02:09:58.755Z,0.00
2022-12-23T02:10:58.750Z,0.00
2022-12-23T02:11:58.738Z,0.00
2022-12-23T02:12:58.717Z,0.00
2022-12-23T02:13:58.702Z,0.00
2022-12-23T02:14:58.720Z,0.00
2022-12-23T02:15:58.672Z,0.00
2022-12-23T02:16:58.751Z,0.00
2022-12-23T02:17:58.678Z,0.00
2022-12-23T02:18:58.636Z,0.00
2022-12-23T02:19:58.616Z,0.00
2022-12-23T02:20:58.601Z,0.00
2022-12-23T02:21:58.585Z,0.00
2022-12-23T02:22:58.590Z,0.00
2022-12-23T02:23:58.562Z,0.00
2022-12-23T02:24:58.588Z,0.00
2022-12-23T02:25:58.543Z,0.00
2022-12-23T02:26:58.523Z,0.00
2022-12-23T02:27:58.505Z,0.00
2022-12-23T02:28:58.508Z,0.00
2022-12-23T02:29:58.493Z,0.00
2022-12-23T02:30:58.604Z,0.00
2022-12-23T02:31:58.484Z,0.00
2022-12-23T02:32:58.447Z,0.00
2022-12-23T02:33:58.428Z,0.00
2022-12-23T02:34:58.418Z,0.00
2022-12-23T02:35:58.406Z,0.00
2022-12-23T02:36:58.393Z,0.00
2022-12-23T02:37:58.372Z,0.00
2022-12-23T02:38:58.353Z,0.00
2022-12-23T02:39:58.347Z,0.00
2022-12-23T02:40:58.337Z,0.00
2022-12-23T02:41:58.326Z,0.00
2022-12-23T02:42:58.308Z,0.00
2022-12-23T02:43:58.296Z,0.00
2022-12-23T02:44:58.278Z,0.00
2022-12-23T02:45:58.392Z,0.00
2022-12-23T02:46:58.277Z,0.00
2022-12-23T02:47:58.239Z,0.00
2022-12-23T02:48:58.243Z,0.00
2022-12-23T02:49:58.217Z,0.00
2022-12-23T02:50:58.197Z,0.00
2022-12-23T02:51:58.189Z,0.00
2022-12-23T02:52:58.170Z,0.00
2022-12-23T02:53:58.155Z,0.00
2022-12-23T02:54:58.138Z,0.00
2022-12-23T02:55:58.131Z,0.00
2022-12-23T02:56:58.130Z,0.00
2022-12-23T02:57:58.108Z,0.00
2022-12-23T02:58:58.089Z,0.00
2022-12-23T02:59:58.087Z,0.00
2022-12-23T03:00:58.060Z,0.00
2022-12-23T03:01:58.171Z,0.00
2022-12-23T03:02:58.309Z,0.00
2022-12-23T03:03:58.196Z,0.00
2022-12-23T03:05:00.841Z,0.00
2022-12-23T03:05:58.010Z,0.00
2022-12-23T03:06:57.982Z,0.00
2022-12-23T03:07:57.965Z,0.00
2022-12-23T03:08:57.955Z,0.00
2022-12-23T03:09:57.948Z,0.00
2022-12-23T03:10:57.928Z,0.00
2022-12-23T03:11:57.913Z,0.00
2022-12-23T03:12:57.920Z,0.00
2022-12-23T03:13:57.900Z,0.00
2022-12-23T03:14:57.878Z,0.00
2022-12-23T03:15:57.956Z,0.00
2022-12-23T03:16:57.847Z,0.00
2022-12-23T03:17:57.833Z,0.00
2022-12-23T03:18:57.842Z,0.00
2022-12-23T03:19:57.809Z,0.00
2022-12-23T03:20:57.800Z,0.00
2022-12-23T03:21:57.782Z,0.00
2022-12-23T03:22:57.771Z,0.00
2022-12-23T03:23:57.762Z,0.00
2022-12-23T03:24:57.740Z,0.00
2022-12-23T03:25:57.739Z,0.00
2022-12-23T03:26:57.724Z,0.00
2022-12-23T03:27:57.725Z,0.00
2022-12-23T03:28:57.742Z,0.00
2022-12-23T03:29:57.677Z,0.00
2022-12-23T03:30:57.701Z,0.00
2022-12-23T03:31:57.657Z,0.00
2022-12-23T03:32:57.652Z,0.00
2022-12-23T03:33:57.625Z,0.00
2022-12-23T03:34:57.630Z,0.00
2022-12-23T03:35:57.599Z,0.00
2022-12-23T03:36:57.587Z,0.00
2022-12-23T03:37:57.568Z,0.00
2022-12-23T03:38:57.560Z,0.00
2022-12-23T03:39:57.548Z,0.00
2022-12-23T03:40:57.531Z,0.00
2022-12-23T03:41:57.520Z,0.00
2022-12-23T03:42:57.500Z,0.00
2022-12-23T03:43:57.489Z,0.00
2022-12-23T03:45:36.399Z,0.00
2022-12-23T03:45:58.515Z,0.00
2022-12-23T03:46:57.501Z,0.00
2022-12-23T03:47:57.439Z,0.00
2022-12-23T03:48:57.421Z,0.00
2022-12-23T03:49:57.408Z,0.00
2022-12-23T03:50:57.416Z,0.00
2022-12-23T03:51:57.394Z,0.00
2022-12-23T03:52:57.370Z,0.00
2022-12-23T03:53:57.355Z,0.00
2022-12-23T03:54:57.331Z,0.00
2022-12-23T03:55:57.327Z,0.00
2022-12-23T03:56:57.328Z,0.00
2022-12-23T03:57:57.314Z,0.00
2022-12-23T03:58:57.286Z,0.00
2022-12-23T03:59:57.280Z,0.00
2022-12-23T04:00:57.256Z,0.00
2022-12-23T04:01:57.400Z,0.00
2022-12-23T04:02:57.363Z,0.00
2022-12-23T04:03:57.305Z,0.00
2022-12-23T04:04:57.204Z,0.00
2022-12-23T04:05:57.186Z,0.00
2022-12-23T04:06:57.203Z,0.00
2022-12-23T04:07:57.167Z,0.00
2022-12-23T04:08:57.155Z,0.00
2022-12-23T04:09:57.140Z,0.00
2022-12-23T04:10:57.131Z,0.00
2022-12-23T04:11:57.114Z,0.00
2022-12-23T04:12:57.111Z,0.00
2022-12-23T04:13:57.086Z,0.00
2022-12-23T04:14:57.072Z,0.00
2022-12-23T04:15:57.116Z,0.00
2022-12-23T04:16:57.048Z,0.00
2022-12-23T04:17:57.036Z,0.00
2022-12-23T04:18:57.019Z,0.00
2022-12-23T04:19:57.000Z,0.00
2022-12-23T04:20:56.986Z,0.00
2022-12-23T04:21:56.972Z,0.00
2022-12-23T04:22:57.004Z,0.00
2022-12-23T04:23:56.951Z,0.00
2022-12-23T04:24:56.941Z,0.00
2022-12-23T04:25:56.924Z,0.00
2022-12-23T04:26:56.922Z,0.00
2022-12-23T04:27:56.897Z,0.00
2022-12-23T04:28:56.883Z,0.00
2022-12-23T04:29:56.871Z,0.00
2022-12-23T04:30:56.875Z,0.00
2022-12-23T04:31:56.868Z,0.00
2022-12-23T04:32:56.826Z,0.00
2022-12-23T04:33:56.818Z,0.00
2022-12-23T04:34:56.833Z,0.00
2022-12-23T04:35:56.786Z,0.00
2022-12-23T04:36:56.784Z,0.00
2022-12-23T04:37:56.760Z,0.00
2022-12-23T04:38:56.778Z,0.00
2022-12-23T04:39:56.744Z,0.00
2022-12-23T04:40:56.728Z,0.00
2022-12-23T04:41:56.718Z,0.00
2022-12-23T04:42:56.693Z,0.00
2022-12-23T04:43:56.680Z,0.00
2022-12-23T04:44:56.678Z,0.00
2022-12-23T04:45:56.654Z,0.00
2022-12-23T04:46:56.707Z,0.00
2022-12-23T04:47:56.638Z,0.00
2022-12-23T04:48:56.616Z,0.00
2022-12-23T04:49:56.605Z,0.00
2022-12-23T04:50:56.605Z,0.00
2022-12-23T04:51:56.578Z,0.00
2022-12-23T04:52:56.564Z,0.00
2022-12-23T04:53:56.553Z,0.00
2022-12-23T04:54:56.678Z,0.00
2022-12-23T04:55:56.518Z,0.00
2022-12-23T04:56:56.501Z,0.00
2022-12-23T04:57:56.505Z,0.00
2022-12-23T04:58:56.484Z,0.00
2022-12-23T04:59:56.475Z,0.00
2022-12-23T05:00:56.515Z,0.00
2022-12-23T05:01:56.517Z,0.00
2022-12-23T05:02:56.525Z,0.00
2022-12-23T05:03:56.427Z,0.00
2022-12-23T05:04:56.417Z,0.00
2022-12-23T05:05:56.392Z,0.00
2022-12-23T05:06:56.376Z,0.00
2022-12-23T05:07:56.352Z,0.00
2022-12-23T05:08:56.349Z,0.00
2022-12-23T05:09:56.331Z,0.00
2022-12-23T05:10:56.348Z,0.00
2022-12-23T05:11:56.312Z,0.00
2022-12-23T05:12:56.303Z,0.00
2022-12-23T05:13:56.283Z,0.00
2022-12-23T05:14:56.266Z,0.00
2022-12-23T05:15:56.341Z,0.00
2022-12-23T05:16:59.518Z,0.00
2022-12-23T05:17:56.220Z,0.00
2022-12-23T05:18:56.212Z,0.00
2022-12-23T05:19:56.202Z,0.00
2022-12-23T05:20:56.189Z,0.00
2022-12-23T05:21:56.172Z,0.00
2022-12-23T05:22:56.157Z,0.00
2022-12-23T05:23:56.144Z,0.00
2022-12-23T05:24:56.140Z,0.00
2022-12-23T05:25:56.123Z,0.00
2022-12-23T05:27:00.038Z,0.00
2022-12-23T05:27:56.100Z,0.00
2022-12-23T05:28:56.073Z,0.00
2022-12-23T05:29:56.063Z,0.00
2022-12-23T05:30:56.067Z,0.00
2022-12-23T05:31:56.167Z,0.00
2022-12-23T05:32:56.022Z,0.00
2022-12-23T05:33:57.471Z,0.00
2022-12-23T05:34:56.008Z,0.00
2022-12-23T05:35:55.986Z,0.00
2022-12-23T05:36:55.975Z,0.00
2022-12-23T05:37:55.959Z,0.00
2022-12-23T05:38:55.951Z,0.00
2022-12-23T05:39:55.940Z,0.00
2022-12-23T05:40:55.935Z,0.00
2022-12-23T05:41:55.902Z,0.00
2022-12-23T05:42:55.914Z,0.00
2022-12-23T05:43:55.871Z,0.00
2022-12-23T05:44:55.869Z,0.00
2022-12-23T05:45:55.926Z,0.00
2022-12-23T05:46:55.837Z,0.00
2022-12-23T05:47:55.861Z,0.00
2022-12-23T05:48:55.810Z,0.00
2022-12-23T05:49:55.797Z,0.00
2022-12-23T05:50:55.789Z,0.00
2022-12-23T05:51:55.775Z,0.00
2022-12-23T05:52:55.773Z,0.00
2022-12-23T05:53:55.739Z,0.00
2022-12-23T05:54:55.736Z,0.00
2022-12-23T05:55:55.716Z,0.00
2022-12-23T05:56:55.707Z,0.00
2022-12-23T05:57:55.696Z,0.00
2022-12-23T05:58:55.715Z,0.00
2022-12-23T05:59:55.662Z,0.00
2022-12-23T06:00:55.646Z,0.00
2022-12-23T06:01:55.849Z,0.00
2022-12-23T06:02:55.866Z,0.00
2022-12-23T06:03:55.823Z,0.00
2022-12-23T06:04:55.599Z,0.00
2022-12-23T06:05:55.594Z,0.00
2022-12-23T06:06:55.575Z,0.00
2022-12-23T06:07:55.581Z,0.00
2022-12-23T06:08:59.520Z,0.00
2022-12-23T06:09:55.527Z,0.00
2022-12-23T06:10:55.520Z,0.00
2022-12-23T06:11:55.495Z,0.00
2022-12-23T06:12:55.487Z,0.00
2022-12-23T06:13:55.486Z,0.00
2022-12-23T06:14:55.488Z,0.00
2022-12-23T06:15:55.462Z,0.00
2022-12-23T06:16:55.562Z,0.00
2022-12-23T06:17:55.418Z,0.00
2022-12-23T06:18:55.429Z,0.00
2022-12-23T06:19:55.401Z,0.00
2022-12-23T06:20:55.382Z,0.00
2022-12-23T06:21:55.384Z,0.00
2022-12-23T06:22:55.361Z,0.00
2022-12-23T06:23:55.346Z,0.00
2022-12-23T06:24:55.333Z,0.00
2022-12-23T06:25:55.310Z,0.00
2022-12-23T06:26:57.422Z,0.00
2022-12-23T06:27:55.280Z,0.00
2022-12-23T06:28:55.271Z,0.00
2022-12-23T06:29:55.253Z,0.00
2022-12-23T06:30:55.269Z,0.00
2022-12-23T06:31:55.361Z,0.00
2022-12-23T06:32:55.215Z,0.00
2022-12-23T06:33:55.207Z,0.00
2022-12-23T06:34:55.193Z,0.00
2022-12-23T06:35:55.184Z,0.00
2022-12-23T06:36:55.167Z,0.00
2022-12-23T06:37:55.165Z,0.00
2022-12-23T06:38:55.132Z,4.00
2022-12-23T06:39:55.120Z,4.00
2022-12-23T06:40:55.103Z,4.00
2022-12-23T06:41:55.096Z,0.00
2022-12-23T06:42:55.088Z,0.00
2022-12-23T06:43:55.070Z,4.00
2022-12-23T06:44:55.066Z,4.00
2022-12-23T06:45:55.095Z,4.00
2022-12-23T06:46:55.064Z,8.00
2022-12-23T06:47:55.015Z,8.00
2022-12-23T06:48:55.003Z,12.00
2022-12-23T06:49:54.988Z,8.00
2022-12-23T06:50:54.977Z,12.00
2022-12-23T06:51:54.955Z,12.00
2022-12-23T06:52:54.947Z,12.00
2022-12-23T06:53:54.929Z,16.00
2022-12-23T06:54:54.919Z,20.00
2022-12-23T06:55:54.904Z,24.00
2022-12-23T06:56:54.894Z,32.00
2022-12-23T06:57:54.879Z,36.00
2022-12-23T06:58:54.862Z,40.00
2022-12-23T06:59:54.849Z,44.00
2022-12-23T07:00:54.845Z,48.00
2022-12-23T07:01:54.897Z,52.00
2022-12-23T07:02:55.046Z,56.00
2022-12-23T07:03:54.799Z,64.00
2022-12-23T07:04:54.787Z,72.00
2022-12-23T07:05:54.770Z,84.00
2022-12-23T07:06:54.755Z,84.00
2022-12-23T07:07:54.791Z,84.00
2022-12-23T07:08:54.729Z,88.00
2022-12-23T07:09:54.710Z,92.00
2022-12-23T07:10:54.702Z,104.00
2022-12-23T07:11:54.695Z,120.00
2022-12-23T07:12:54.687Z,140.00
2022-12-23T07:13:54.713Z,164.00
2022-12-23T07:14:54.656Z,180.00
2022-12-23T07:15:54.638Z,188.00
2022-12-23T07:16:54.668Z,196.00
2022-12-23T07:17:54.617Z,212.00
2022-12-23T07:18:54.696Z,240.00
2022-12-23T07:19:54.583Z,280.00
2022-12-23T07:20:54.568Z,316.00
2022-12-23T07:21:54.553Z,320.00
2022-12-23T07:22:54.541Z,316.00
2022-12-23T07:23:54.537Z,304.00
2022-12-23T07:24:54.516Z,304.00
2022-12-23T07:25:54.500Z,316.00
2022-12-23T07:26:54.494Z,336.00
2022-12-23T07:27:54.478Z,352.00
2022-12-23T07:28:54.476Z,364.00
2022-12-23T07:29:54.451Z,368.00
2022-12-23T07:30:54.441Z,380.00
2022-12-23T07:31:54.558Z,416.00
2022-12-23T07:32:54.409Z,456.00
2022-12-23T07:33:54.395Z,500.00
2022-12-23T07:34:54.412Z,536.00
2022-12-23T07:35:54.364Z,568.00
2022-12-23T07:36:54.353Z,580.00
2022-12-23T07:37:54.336Z,580.00
2022-12-23T07:38:54.319Z,600.00
2022-12-23T07:39:54.312Z,616.00
2022-12-23T07:40:54.299Z,652.00
2022-12-23T07:42:09.352Z,668.00
2022-12-23T07:42:55.306Z,644.00
2022-12-23T07:43:54.262Z,600.00
2022-12-23T07:44:54.252Z,552.00
2022-12-23T07:45:59.929Z,504.00
2022-12-23T07:46:55.252Z,484.00
2022-12-23T07:47:54.205Z,492.00
2022-12-23T07:48:54.208Z,488.00
2022-12-23T07:49:54.178Z,476.00
2022-12-23T07:50:54.190Z,496.00
2022-12-23T07:51:54.152Z,528.00
2022-12-23T07:52:54.137Z,580.00
2022-12-23T07:53:54.126Z,628.00
2022-12-23T07:54:54.110Z,640.00
2022-12-23T07:55:56.552Z,628.00
2022-12-23T07:56:54.084Z,632.00
2022-12-23T07:57:54.076Z,680.00
2022-12-23T07:58:54.056Z,800.00
2022-12-23T07:59:54.051Z,908.00
2022-12-23T08:00:54.029Z,1048.00
2022-12-23T08:01:54.209Z,1212.00
2022-12-23T08:02:54.203Z,1272.00
2022-12-23T08:03:54.070Z,1192.00
2022-12-23T08:04:54.020Z,1100.00
2022-12-23T08:05:53.962Z,1092.00
2022-12-23T08:06:53.979Z,1168.00
2022-12-23T08:07:53.942Z,1160.00
2022-12-23T08:08:53.927Z,1076.00
2022-12-23T08:09:53.908Z,1088.00
2022-12-23T08:10:53.894Z,1140.00
2022-12-23T08:11:53.897Z,1188.00
2022-12-23T08:12:53.875Z,1204.00
2022-12-23T08:13:53.865Z,1192.00
2022-12-23T08:14:53.844Z,1256.00
2022-12-23T08:15:53.829Z,1508.00
2022-12-23T08:16:53.903Z,1660.00
2022-12-23T08:17:53.803Z,1576.00
2022-12-23T08:18:53.798Z,1472.00
2022-12-23T08:19:53.777Z,1500.00
2022-12-23T08:20:53.762Z,1488.00
2022-12-23T08:21:53.752Z,1436.00
2022-12-23T08:22:53.756Z,1516.00
2022-12-23T08:23:53.718Z,1520.00
2022-12-23T08:24:53.741Z,1380.00
2022-12-23T08:25:53.693Z,1104.00
2022-12-23T08:26:53.687Z,1164.00
2022-12-23T08:27:53.673Z,1300.00
2022-12-23T08:28:53.729Z,1272.00
2022-12-23T08:29:53.639Z,1312.00
2022-12-23T08:30:53.697Z,1216.00
2022-12-23T08:31:53.608Z,1032.00
2022-12-23T08:32:53.596Z,912.00
2022-12-23T08:33:53.581Z,908.00
2022-12-23T08:34:53.581Z,1064.00
2022-12-23T08:35:53.555Z,1016.00
2022-12-23T08:36:53.541Z,912.00
2022-12-23T08:37:53.526Z,960.00
2022-12-23T08:38:53.560Z,1056.00
2022-12-23T08:39:53.509Z,1212.00
2022-12-23T08:40:53.492Z,1324.00
2022-12-23T08:41:53.479Z,1332.00
2022-12-23T08:42:53.473Z,1372.00
2022-12-23T08:43:53.462Z,1300.00
2022-12-23T08:44:53.441Z,1128.00
2022-12-23T08:45:53.542Z,1060.00
2022-12-23T08:46:53.419Z,1132.00
2022-12-23T08:47:53.421Z,1208.00
2022-12-23T08:48:53.374Z,1168.00
2022-12-23T08:49:53.364Z,1192.00
2022-12-23T08:50:53.361Z,1152.00
2022-12-23T08:51:53.365Z,1316.00
2022-12-23T08:52:53.349Z,1332.00
2022-12-23T08:53:59.548Z,1056.00
2022-12-23T08:54:53.374Z,896.00
2022-12-23T08:55:53.291Z,808.00
2022-12-23T08:56:53.277Z,984.00
2022-12-23T08:57:53.265Z,1256.00
2022-12-23T08:58:53.255Z,1308.00
2022-12-23T08:59:53.231Z,1188.00
2022-12-23T09:00:53.215Z,1064.00
2022-12-23T09:01:53.384Z,968.00
2022-12-23T09:02:53.358Z,1072.00
2022-12-23T09:03:53.240Z,1196.00
2022-12-23T09:04:53.165Z,1156.00
2022-12-23T09:05:53.155Z,1032.00
2022-12-23T09:06:53.143Z,1132.00
2022-12-23T09:07:53.131Z,1332.00
2022-12-23T09:08:53.117Z,1404.00
2022-12-23T09:09:53.107Z,1260.00
2022-12-23T09:10:53.109Z,1208.00
2022-12-23T09:11:53.079Z,1180.00
2022-12-23T09:12:53.061Z,1172.00
2022-12-23T09:13:53.052Z,1212.00
2022-12-23T09:14:53.042Z,1252.00
2022-12-23T09:15:53.076Z,1088.00
2022-12-23T09:16:53.012Z,956.00
2022-12-23T09:17:52.991Z,844.00
2022-12-23T09:18:52.994Z,952.00
2022-12-23T09:19:53.485Z,984.00
2022-12-23T09:20:52.954Z,1124.00
2022-12-23T09:21:52.959Z,1208.00
2022-12-23T09:22:52.928Z,1296.00
2022-12-23T09:23:52.916Z,1272.00
2022-12-23T09:24:52.899Z,1336.00
2022-12-23T09:25:52.889Z,1388.00
2022-12-23T09:26:52.901Z,1424.00
2022-12-23T09:27:52.857Z,1280.00
2022-12-23T09:28:53.059Z,1260.00
2022-12-23T09:29:52.830Z,1448.00
2022-12-23T09:30:52.867Z,1408.00
2022-12-23T09:31:52.864Z,1188.00
2022-12-23T09:32:52.790Z,1120.00
2022-12-23T09:33:52.803Z,1412.00
2022-12-23T09:34:52.774Z,1528.00
2022-12-23T09:35:52.744Z,1524.00
2022-12-23T09:36:55.425Z,1448.00
2022-12-23T09:37:52.717Z,1440.00
2022-12-23T09:38:52.706Z,1608.00
2022-12-23T09:39:52.695Z,1700.00
2022-12-23T09:40:52.683Z,1560.00
2022-12-23T09:41:52.666Z,1424.00
2022-12-23T09:42:52.684Z,1256.00
2022-12-23T09:43:52.652Z,1344.00
2022-12-23T09:44:52.653Z,1592.00
2022-12-23T09:45:52.622Z,1752.00
2022-12-23T09:46:52.694Z,1720.00
2022-12-23T09:47:52.602Z,2012.00
2022-12-23T09:48:52.576Z,2208.00
2022-12-23T09:49:52.562Z,2404.00
2022-12-23T09:50:52.548Z,2348.00
2022-12-23T09:51:52.538Z,2240.00
2022-12-23T09:52:52.525Z,2228.00
2022-12-23T09:53:52.520Z,2292.00
2022-12-23T09:54:52.498Z,2320.00
2022-12-23T09:55:52.487Z,2208.00
2022-12-23T09:56:52.482Z,2216.00
2022-12-23T09:57:52.462Z,2284.00
2022-12-23T09:58:52.465Z,2460.00
2022-12-23T09:59:52.440Z,2692.00
2022-12-23T10:00:52.420Z,2952.00
2022-12-23T10:01:52.601Z,3248.00
2022-12-23T10:02:52.642Z,3440.00
2022-12-23T10:03:52.559Z,3480.00
2022-12-23T10:04:52.363Z,3428.00
2022-12-23T10:05:52.360Z,3380.00
2022-12-23T10:06:56.217Z,3452.00
2022-12-23T10:07:52.324Z,3776.00
2022-12-23T10:08:52.314Z,4112.00
2022-12-23T10:09:52.306Z,4340.00
2022-12-23T10:10:52.282Z,4392.00
2022-12-23T10:11:52.283Z,4452.00
2022-12-23T10:12:52.266Z,4556.00
2022-12-23T10:13:52.247Z,4716.00
2022-12-23T10:14:52.355Z,4848.00
2022-12-23T10:15:52.275Z,5016.00
2022-12-23T10:16:52.204Z,5044.00
2022-12-23T10:17:52.188Z,5044.00
2022-12-23T10:18:52.175Z,5012.00
2022-12-23T10:19:52.162Z,4940.00
2022-12-23T10:20:52.148Z,4852.00
2022-12-23T10:21:52.148Z,4740.00
2022-12-23T10:22:52.127Z,4892.00
2022-12-23T10:23:52.107Z,4748.00
2022-12-23T10:24:52.150Z,4196.00
2022-12-23T10:25:52.086Z,3992.00
2022-12-23T10:26:52.076Z,4152.00
2022-12-23T10:27:52.071Z,4368.00
2022-12-23T10:28:52.044Z,4252.00
2022-12-23T10:29:52.103Z,4644.00
2022-12-23T10:31:10.976Z,4600.00
2022-12-23T10:31:53.136Z,4456.00
2022-12-23T10:32:52.014Z,4496.00
2022-12-23T10:33:51.974Z,4456.00
2022-12-23T10:34:51.960Z,4440.00
2022-12-23T10:35:52.072Z,4392.00
2022-12-23T10:36:51.995Z,4516.00
2022-12-23T10:37:51.919Z,4612.00
2022-12-23T10:38:51.919Z,4576.00
2022-12-23T10:39:51.900Z,4488.00
2022-12-23T10:40:51.884Z,4304.00
2022-12-23T10:41:51.867Z,4000.00
2022-12-23T10:42:51.858Z,3828.00
2022-12-23T10:43:51.839Z,3904.00
2022-12-23T10:44:51.825Z,4080.00
2022-12-23T10:45:51.815Z,4312.00
2022-12-23T10:46:51.949Z,4528.00
2022-12-23T10:47:51.798Z,4568.00
2022-12-23T10:48:51.788Z,4220.00
2022-12-23T10:49:51.768Z,3744.00
2022-12-23T10:50:51.769Z,3504.00
2022-12-23T10:51:51.749Z,3404.00
2022-12-23T10:52:51.730Z,3536.00
2022-12-23T10:53:51.716Z,4144.00
2022-12-23T10:54:51.715Z,4788.00
2022-12-23T10:55:51.689Z,4844.00
2022-12-23T10:56:51.672Z,4496.00
2022-12-23T10:57:51.697Z,4112.00
2022-12-23T10:58:51.647Z,3948.00
2022-12-23T10:59:51.654Z,3656.00
2022-12-23T11:00:51.652Z,3080.00
2022-12-23T11:01:51.852Z,2568.00
2022-12-23T11:02:51.750Z,2308.00
2022-12-23T11:03:51.699Z,2292.00
2022-12-23T11:04:51.578Z,2712.00
2022-12-23T11:05:51.557Z,3464.00
2022-12-23T11:07:10.840Z,3776.00
2022-12-23T11:07:52.558Z,3536.00
2022-12-23T11:08:51.518Z,3216.00
2022-12-23T11:09:51.511Z,3232.00
2022-12-23T11:10:51.487Z,3036.00
2022-12-23T11:11:51.509Z,3020.00
2022-12-23T11:12:51.472Z,3308.00
2022-12-23T11:13:51.447Z,3664.00
2022-12-23T11:14:51.438Z,3700.00
2022-12-23T11:15:51.526Z,3368.00
2022-12-23T11:16:51.513Z,3204.00
2022-12-23T11:17:51.396Z,3080.00
2022-12-23T11:18:51.410Z,3068.00
2022-12-23T11:19:51.379Z,3152.00
2022-12-23T11:20:51.360Z,3264.00
2022-12-23T11:21:51.350Z,3244.00
2022-12-23T11:22:51.344Z,3208.00
2022-12-23T11:23:51.322Z,3108.00
2022-12-23T11:24:51.309Z,2848.00
2022-12-23T11:25:51.290Z,2568.00
2022-12-23T11:26:51.274Z,2404.00
2022-12-23T11:27:51.263Z,2364.00
2022-12-23T11:28:51.256Z,2300.00
2022-12-23T11:29:51.238Z,2192.00
2022-12-23T11:30:55.814Z,2352.00
2022-12-23T11:31:51.310Z,2436.00
2022-12-23T11:32:51.220Z,2460.00
2022-12-23T11:33:51.689Z,2292.00
2022-12-23T11:34:51.210Z,2068.00
2022-12-23T11:35:51.198Z,1888.00
2022-12-23T11:36:54.732Z,1960.00
2022-12-23T11:37:51.134Z,1940.00
2022-12-23T11:38:51.128Z,2224.00
2022-12-23T11:39:51.109Z,2324.00
2022-12-23T11:40:51.095Z,3072.00
2022-12-23T11:41:51.104Z,3176.00
2022-12-23T11:42:55.147Z,3052.00
2022-12-23T11:43:51.052Z,3172.00
2022-12-23T11:44:51.043Z,3476.00
2022-12-23T11:45:51.102Z,3268.00
2022-12-23T11:46:51.020Z,3020.00
2022-12-23T11:47:50.999Z,2832.00
2022-12-23T11:48:54.716Z,2724.00
2022-12-23T11:49:50.978Z,2592.00
2022-12-23T11:50:50.985Z,2380.00
2022-12-23T11:51:50.948Z,2228.00
2022-12-23T11:52:50.935Z,2116.00
2022-12-23T11:53:50.922Z,2056.00
2022-12-23T11:54:54.437Z,2048.00
2022-12-23T11:55:50.890Z,1956.00
2022-12-23T11:56:50.991Z,1920.00
2022-12-23T11:57:50.864Z,1960.00
2022-12-23T11:58:50.863Z,1984.00
2022-12-23T11:59:50.850Z,1944.00
2022-12-23T12:00:55.563Z,1952.00
2022-12-23T12:01:50.943Z,2032.00
2022-12-23T12:02:51.030Z,2032.00
2022-12-23T12:03:50.853Z,1980.00
2022-12-23T12:04:50.799Z,1952.00
2022-12-23T12:05:50.758Z,1988.00
2022-12-23T12:06:56.017Z,2088.00
2022-12-23T12:07:50.741Z,2148.00
2022-12-23T12:08:50.748Z,2144.00
2022-12-23T12:09:50.716Z,2156.00
2022-12-23T12:10:50.713Z,2168.00
2022-12-23T12:11:50.681Z,2096.00
2022-12-23T12:12:54.687Z,2032.00
2022-12-23T12:13:50.654Z,2060.00
2022-12-23T12:14:50.655Z,2076.00
2022-12-23T12:15:50.633Z,2064.00
2022-12-23T12:16:50.694Z,2104.00
2022-12-23T12:17:50.613Z,2136.00
2022-12-23T12:18:55.533Z,2056.00
2022-12-23T12:19:50.576Z,1952.00
2022-12-23T12:20:50.577Z,2084.00
2022-12-23T12:21:50.554Z,2416.00
2022-12-23T12:22:50.563Z,2740.00
2022-12-23T12:23:55.426Z,2812.00
2022-12-23T12:24:51.558Z,2868.00
2022-12-23T12:25:50.499Z,3072.00
2022-12-23T12:26:50.484Z,3240.00
2022-12-23T12:27:50.493Z,3240.00
2022-12-23T12:28:50.460Z,3264.00
2022-12-23T12:29:50.444Z,3308.00
2022-12-23T12:30:50.492Z,3288.00
2022-12-23T12:31:50.443Z,3464.00
2022-12-23T12:32:50.423Z,3528.00
2022-12-23T12:33:50.398Z,3584.00
2022-12-23T12:34:50.386Z,3564.00
2022-12-23T12:35:53.689Z,3380.00
2022-12-23T12:36:50.440Z,3144.00
2022-12-23T12:37:50.352Z,2964.00
2022-12-23T12:38:50.350Z,2856.00
2022-12-23T12:39:50.310Z,2760.00
2022-12-23T12:40:50.300Z,2672.00
2022-12-23T12:41:50.286Z,2628.00
2022-12-23T12:42:50.276Z,2528.00
2022-12-23T12:43:50.260Z,2448.00
2022-12-23T12:44:50.254Z,2456.00
2022-12-23T12:45:50.309Z,2308.00